sensor_id;sensor_type;location;lat;lon;timestamp;P1;durP1;ratioP1;P2;durP2;ratioP2
55210;SDS011;41082;52.822;6.666;2023-03-01T00:00:54;10.73;;;6.28;;
55210;SDS011;41082;52.822;6.666;2023-03-01T00:03:19;11.50;;;7.45;;
55210;SDS011;41082;52.822;6.666;2023-03-01T00:05:46;10.75;;;7.78;;
55210;SDS011;41082;52.822;6.666;2023-03-01T00:08:12;9.48;;;6.97;;
55210;SDS011;41082;52.822;6.666;2023-03-01T00:10:38;10.93;;;7.65;;
55210;SDS011;41082;52.822;6.666;2023-03-01T00:13:04;10.90;;;7.63;;
55210;SDS011;41082;52.822;6.666;2023-03-01T00:15:30;10.48;;;8.40;;
55210;SDS011;41082;52.822;6.666;2023-03-01T00:17:57;16.58;;;9.43;;
55210;SDS011;41082;52.822;6.666;2023-03-01T00:20:22;13.48;;;9.45;;
55210;SDS011;41082;52.822;6.666;2023-03-01T00:22:48;11.40;;;8.32;;
55210;SDS011;41082;52.822;6.666;2023-03-01T00:25:14;9.50;;;7.28;;
55210;SDS011;41082;52.822;6.666;2023-03-01T00:27:39;10.05;;;7.78;;
55210;SDS011;41082;52.822;6.666;2023-03-01T00:30:05;11.10;;;7.93;;
55210;SDS011;41082;52.822;6.666;2023-03-01T00:32:31;10.90;;;8.13;;
55210;SDS011;41082;52.822;6.666;2023-03-01T00:34:57;9.45;;;7.57;;
55210;SDS011;41082;52.822;6.666;2023-03-01T00:37:23;9.95;;;7.03;;
55210;SDS011;41082;52.822;6.666;2023-03-01T00:39:49;10.25;;;7.97;;
55210;SDS011;41082;52.822;6.666;2023-03-01T00:42:15;14.60;;;9.23;;
55210;SDS011;41082;52.822;6.666;2023-03-01T00:44:41;9.88;;;7.43;;
55210;SDS011;41082;52.822;6.666;2023-03-01T00:47:07;8.10;;;7.07;;
55210;SDS011;41082;52.822;6.666;2023-03-01T00:49:33;8.52;;;6.50;;
55210;SDS011;41082;52.822;6.666;2023-03-01T00:51:59;11.73;;;7.97;;
55210;SDS011;41082;52.822;6.666;2023-03-01T00:54:25;14.00;;;8.00;;
55210;SDS011;41082;52.822;6.666;2023-03-01T00:56:50;9.75;;;7.20;;
55210;SDS011;41082;52.822;6.666;2023-03-01T00:59:16;11.90;;;7.80;;
55210;SDS011;41082;52.822;6.666;2023-03-01T01:01:41;13.02;;;8.20;;
55210;SDS011;41082;52.822;6.666;2023-03-01T01:04:08;14.07;;;8.68;;
55210;SDS011;41082;52.822;6.666;2023-03-01T01:06:37;12.27;;;8.25;;
55210;SDS011;41082;52.822;6.666;2023-03-01T01:09:07;12.82;;;8.02;;
55210;SDS011;41082;52.822;6.666;2023-03-01T01:11:34;11.32;;;8.02;;
55210;SDS011;41082;52.822;6.666;2023-03-01T01:14:01;13.70;;;8.48;;
55210;SDS011;41082;52.822;6.666;2023-03-01T01:16:27;12.20;;;7.63;;
55210;SDS011;41082;52.822;6.666;2023-03-01T01:18:54;8.25;;;6.90;;
55210;SDS011;41082;52.822;6.666;2023-03-01T01:21:21;11.25;;;7.63;;
55210;SDS011;41082;52.822;6.666;2023-03-01T01:23:48;10.13;;;7.75;;
55210;SDS011;41082;52.822;6.666;2023-03-01T01:26:18;11.05;;;8.75;;
55210;SDS011;41082;52.822;6.666;2023-03-01T01:28:46;12.40;;;8.30;;
55210;SDS011;41082;52.822;6.666;2023-03-01T01:31:12;12.60;;;8.70;;
55210;SDS011;41082;52.822;6.666;2023-03-01T01:33:38;11.13;;;8.02;;
55210;SDS011;41082;52.822;6.666;2023-03-01T01:36:05;12.57;;;8.45;;
55210;SDS011;41082;52.822;6.666;2023-03-01T01:38:31;10.02;;;7.80;;
55210;SDS011;41082;52.822;6.666;2023-03-01T01:40:57;11.93;;;8.43;;
55210;SDS011;41082;52.822;6.666;2023-03-01T01:43:29;13.68;;;8.93;;
55210;SDS011;41082;52.822;6.666;2023-03-01T01:46:01;9.75;;;7.47;;
55210;SDS011;41082;52.822;6.666;2023-03-01T01:48:43;12.38;;;7.95;;
55210;SDS011;41082;52.822;6.666;2023-03-01T01:51:15;11.07;;;7.72;;
55210;SDS011;41082;52.822;6.666;2023-03-01T01:53:51;12.57;;;7.35;;
55210;SDS011;41082;52.822;6.666;2023-03-01T01:56:23;11.48;;;8.40;;
55210;SDS011;41082;52.822;6.666;2023-03-01T01:58:51;10.68;;;7.25;;
55210;SDS011;41082;52.822;6.666;2023-03-01T02:01:17;10.45;;;7.97;;
55210;SDS011;41082;52.822;6.666;2023-03-01T02:03:43;13.15;;;7.85;;
55210;SDS011;41082;52.822;6.666;2023-03-01T02:06:26;15.82;;;8.02;;
55210;SDS011;41082;52.822;6.666;2023-03-01T02:09:06;14.15;;;9.15;;
55210;SDS011;41082;52.822;6.666;2023-03-01T02:11:36;11.52;;;8.05;;
55210;SDS011;41082;52.822;6.666;2023-03-01T02:14:02;11.23;;;7.72;;
55210;SDS011;41082;52.822;6.666;2023-03-01T02:16:28;11.57;;;7.07;;
55210;SDS011;41082;52.822;6.666;2023-03-01T02:18:56;9.68;;;6.93;;
55210;SDS011;41082;52.822;6.666;2023-03-01T02:26:56;10.50;;;8.07;;
55210;SDS011;41082;52.822;6.666;2023-03-01T02:29:23;12.98;;;9.85;;
55210;SDS011;41082;52.822;6.666;2023-03-01T02:31:50;12.85;;;9.98;;
55210;SDS011;41082;52.822;6.666;2023-03-01T02:34:22;18.58;;;12.95;;
55210;SDS011;41082;52.822;6.666;2023-03-01T02:36:57;15.82;;;12.75;;
55210;SDS011;41082;52.822;6.666;2023-03-01T02:39:39;15.40;;;12.65;;
55210;SDS011;41082;52.822;6.666;2023-03-01T02:42:09;18.83;;;14.02;;
55210;SDS011;41082;52.822;6.666;2023-03-01T02:44:38;18.23;;;14.23;;
55210;SDS011;41082;52.822;6.666;2023-03-01T02:47:04;14.65;;;11.38;;
55210;SDS011;41082;52.822;6.666;2023-03-01T02:49:31;14.65;;;11.70;;
55210;SDS011;41082;52.822;6.666;2023-03-01T02:52:01;14.93;;;11.07;;
55210;SDS011;41082;52.822;6.666;2023-03-01T02:57:29;12.57;;;8.80;;
55210;SDS011;41082;52.822;6.666;2023-03-01T02:59:57;12.77;;;9.88;;
55210;SDS011;41082;52.822;6.666;2023-03-01T03:02:31;13.13;;;10.43;;
55210;SDS011;41082;52.822;6.666;2023-03-01T03:05:12;14.13;;;11.43;;
55210;SDS011;41082;52.822;6.666;2023-03-01T03:07:45;14.60;;;10.52;;
55210;SDS011;41082;52.822;6.666;2023-03-01T03:10:17;12.50;;;9.57;;
55210;SDS011;41082;52.822;6.666;2023-03-01T03:12:48;12.68;;;9.75;;
55210;SDS011;41082;52.822;6.666;2023-03-01T03:15:16;11.85;;;10.07;;
55210;SDS011;41082;52.822;6.666;2023-03-01T03:17:43;12.90;;;9.18;;
55210;SDS011;41082;52.822;6.666;2023-03-01T03:20:09;12.77;;;8.68;;
55210;SDS011;41082;52.822;6.666;2023-03-01T03:22:39;11.80;;;8.50;;
55210;SDS011;41082;52.822;6.666;2023-03-01T03:25:08;12.00;;;8.32;;
55210;SDS011;41082;52.822;6.666;2023-03-01T03:27:36;11.50;;;9.05;;
55210;SDS011;41082;52.822;6.666;2023-03-01T03:30:03;14.82;;;9.57;;
55210;SDS011;41082;52.822;6.666;2023-03-01T03:32:36;12.80;;;9.05;;
55210;SDS011;41082;52.822;6.666;2023-03-01T03:35:03;12.45;;;7.95;;
55210;SDS011;41082;52.822;6.666;2023-03-01T03:37:37;14.13;;;8.05;;
55210;SDS011;41082;52.822;6.666;2023-03-01T03:40:22;13.90;;;8.65;;
55210;SDS011;41082;52.822;6.666;2023-03-01T03:42:48;11.40;;;8.10;;
55210;SDS011;41082;52.822;6.666;2023-03-01T03:45:14;12.40;;;7.88;;
55210;SDS011;41082;52.822;6.666;2023-03-01T03:47:41;12.23;;;8.48;;
55210;SDS011;41082;52.822;6.666;2023-03-01T03:50:07;12.43;;;8.05;;
55210;SDS011;41082;52.822;6.666;2023-03-01T03:52:33;12.82;;;8.00;;
55210;SDS011;41082;52.822;6.666;2023-03-01T03:54:59;11.07;;;7.78;;
55210;SDS011;41082;52.822;6.666;2023-03-01T03:57:24;11.50;;;8.05;;
55210;SDS011;41082;52.822;6.666;2023-03-01T03:59:50;10.60;;;7.35;;
55210;SDS011;41082;52.822;6.666;2023-03-01T04:02:15;11.02;;;7.85;;
55210;SDS011;41082;52.822;6.666;2023-03-01T04:04:47;12.43;;;8.05;;
55210;SDS011;41082;52.822;6.666;2023-03-01T04:07:17;11.93;;;8.70;;
55210;SDS011;41082;52.822;6.666;2023-03-01T04:09:43;10.38;;;7.80;;
55210;SDS011;41082;52.822;6.666;2023-03-01T04:12:09;10.80;;;8.07;;
55210;SDS011;41082;52.822;6.666;2023-03-01T04:14:35;10.65;;;7.78;;
55210;SDS011;41082;52.822;6.666;2023-03-01T04:17:01;9.77;;;7.35;;
55210;SDS011;41082;52.822;6.666;2023-03-01T04:19:30;11.10;;;8.57;;
55210;SDS011;41082;52.822;6.666;2023-03-01T04:22:01;10.82;;;7.30;;
55210;SDS011;41082;52.822;6.666;2023-03-01T04:24:32;10.32;;;8.02;;
55210;SDS011;41082;52.822;6.666;2023-03-01T04:26:58;12.70;;;8.23;;
55210;SDS011;41082;52.822;6.666;2023-03-01T04:29:23;12.57;;;8.85;;
55210;SDS011;41082;52.822;6.666;2023-03-01T04:31:49;13.40;;;8.60;;
55210;SDS011;41082;52.822;6.666;2023-03-01T04:34:15;14.30;;;8.75;;
55210;SDS011;41082;52.822;6.666;2023-03-01T04:36:40;11.60;;;8.50;;
55210;SDS011;41082;52.822;6.666;2023-03-01T04:39:06;13.52;;;8.32;;
55210;SDS011;41082;52.822;6.666;2023-03-01T04:41:37;13.02;;;9.38;;
55210;SDS011;41082;52.822;6.666;2023-03-01T04:44:08;15.10;;;9.77;;
55210;SDS011;41082;52.822;6.666;2023-03-01T04:46:34;14.43;;;8.73;;
55210;SDS011;41082;52.822;6.666;2023-03-01T04:49:00;11.90;;;8.65;;
55210;SDS011;41082;52.822;6.666;2023-03-01T04:51:27;16.73;;;9.88;;
55210;SDS011;41082;52.822;6.666;2023-03-01T04:53:52;14.00;;;8.98;;
55210;SDS011;41082;52.822;6.666;2023-03-01T04:56:18;15.63;;;9.98;;
55210;SDS011;41082;52.822;6.666;2023-03-01T04:58:44;15.45;;;10.48;;
55210;SDS011;41082;52.822;6.666;2023-03-01T05:01:11;14.77;;;9.95;;
55210;SDS011;41082;52.822;6.666;2023-03-01T05:03:44;14.38;;;9.70;;
55210;SDS011;41082;52.822;6.666;2023-03-01T05:06:10;15.68;;;9.90;;
55210;SDS011;41082;52.822;6.666;2023-03-01T05:08:37;13.15;;;9.45;;
55210;SDS011;41082;52.822;6.666;2023-03-01T05:11:03;14.05;;;9.93;;
55210;SDS011;41082;52.822;6.666;2023-03-01T05:13:30;16.17;;;10.93;;
55210;SDS011;41082;52.822;6.666;2023-03-01T05:15:57;13.90;;;10.05;;
55210;SDS011;41082;52.822;6.666;2023-03-01T05:18:25;14.35;;;9.55;;
55210;SDS011;41082;52.822;6.666;2023-03-01T05:20:52;14.38;;;10.15;;
55210;SDS011;41082;52.822;6.666;2023-03-01T05:23:21;17.50;;;11.82;;
55210;SDS011;41082;52.822;6.666;2023-03-01T05:25:47;16.83;;;11.02;;
55210;SDS011;41082;52.822;6.666;2023-03-01T05:28:14;14.93;;;10.30;;
55210;SDS011;41082;52.822;6.666;2023-03-01T05:30:40;15.63;;;10.10;;
55210;SDS011;41082;52.822;6.666;2023-03-01T05:33:06;13.73;;;9.43;;
55210;SDS011;41082;52.822;6.666;2023-03-01T05:35:38;13.93;;;9.85;;
55210;SDS011;41082;52.822;6.666;2023-03-01T05:38:08;15.10;;;10.35;;
55210;SDS011;41082;52.822;6.666;2023-03-01T05:40:38;12.13;;;8.65;;
55210;SDS011;41082;52.822;6.666;2023-03-01T05:43:05;16.15;;;10.77;;
55210;SDS011;41082;52.822;6.666;2023-03-01T05:45:30;14.35;;;9.77;;
55210;SDS011;41082;52.822;6.666;2023-03-01T05:47:59;13.95;;;9.90;;
55210;SDS011;41082;52.822;6.666;2023-03-01T05:50:26;14.80;;;10.23;;
55210;SDS011;41082;52.822;6.666;2023-03-01T05:52:57;14.80;;;9.43;;
55210;SDS011;41082;52.822;6.666;2023-03-01T05:55:29;13.68;;;9.32;;
55210;SDS011;41082;52.822;6.666;2023-03-01T05:57:57;16.17;;;10.02;;
55210;SDS011;41082;52.822;6.666;2023-03-01T06:00:25;16.42;;;10.35;;
55210;SDS011;41082;52.822;6.666;2023-03-01T06:02:50;17.60;;;10.60;;
55210;SDS011;41082;52.822;6.666;2023-03-01T06:05:19;16.75;;;9.93;;
55210;SDS011;41082;52.822;6.666;2023-03-01T06:07:45;16.38;;;10.73;;
55210;SDS011;41082;52.822;6.666;2023-03-01T06:10:11;13.80;;;10.05;;
55210;SDS011;41082;52.822;6.666;2023-03-01T06:12:38;14.38;;;10.63;;
55210;SDS011;41082;52.822;6.666;2023-03-01T06:15:05;16.75;;;10.45;;
55210;SDS011;41082;52.822;6.666;2023-03-01T06:17:34;16.83;;;11.07;;
55210;SDS011;41082;52.822;6.666;2023-03-01T06:20:03;18.75;;;11.32;;
55210;SDS011;41082;52.822;6.666;2023-03-01T06:22:30;18.90;;;10.80;;
55210;SDS011;41082;52.822;6.666;2023-03-01T06:24:55;18.92;;;11.45;;
55210;SDS011;41082;52.822;6.666;2023-03-01T06:27:21;19.10;;;11.85;;
55210;SDS011;41082;52.822;6.666;2023-03-01T06:29:47;16.95;;;11.43;;
55210;SDS011;41082;52.822;6.666;2023-03-01T06:32:12;18.13;;;11.85;;
55210;SDS011;41082;52.822;6.666;2023-03-01T06:34:38;18.85;;;12.15;;
55210;SDS011;41082;52.822;6.666;2023-03-01T06:37:04;17.02;;;11.40;;
55210;SDS011;41082;52.822;6.666;2023-03-01T06:39:31;21.50;;;12.43;;
55210;SDS011;41082;52.822;6.666;2023-03-01T06:41:57;17.88;;;10.77;;
55210;SDS011;41082;52.822;6.666;2023-03-01T06:44:23;18.23;;;11.85;;
55210;SDS011;41082;52.822;6.666;2023-03-01T06:46:49;18.95;;;12.43;;
55210;SDS011;41082;52.822;6.666;2023-03-01T06:49:14;20.40;;;11.88;;
55210;SDS011;41082;52.822;6.666;2023-03-01T06:51:42;17.08;;;11.25;;
55210;SDS011;41082;52.822;6.666;2023-03-01T06:54:08;14.63;;;9.98;;
55210;SDS011;41082;52.822;6.666;2023-03-01T06:56:34;16.23;;;9.90;;
55210;SDS011;41082;52.822;6.666;2023-03-01T06:58:59;14.82;;;9.57;;
55210;SDS011;41082;52.822;6.666;2023-03-01T07:01:25;17.27;;;10.23;;
55210;SDS011;41082;52.822;6.666;2023-03-01T07:03:50;17.98;;;10.20;;
55210;SDS011;41082;52.822;6.666;2023-03-01T07:06:16;13.75;;;9.30;;
55210;SDS011;41082;52.822;6.666;2023-03-01T07:08:42;16.98;;;10.20;;
55210;SDS011;41082;52.822;6.666;2023-03-01T07:11:08;16.15;;;10.23;;
55210;SDS011;41082;52.822;6.666;2023-03-01T07:13:34;17.88;;;10.93;;
55210;SDS011;41082;52.822;6.666;2023-03-01T07:15:59;17.60;;;10.18;;
55210;SDS011;41082;52.822;6.666;2023-03-01T07:18:25;14.65;;;9.98;;
55210;SDS011;41082;52.822;6.666;2023-03-01T07:20:51;16.67;;;11.15;;
55210;SDS011;41082;52.822;6.666;2023-03-01T07:23:16;17.05;;;11.00;;
55210;SDS011;41082;52.822;6.666;2023-03-01T07:25:42;20.10;;;12.02;;
55210;SDS011;41082;52.822;6.666;2023-03-01T07:28:08;16.92;;;11.00;;
55210;SDS011;41082;52.822;6.666;2023-03-01T07:30:33;14.88;;;10.45;;
55210;SDS011;41082;52.822;6.666;2023-03-01T07:32:59;19.80;;;11.90;;
55210;SDS011;41082;52.822;6.666;2023-03-01T07:35:25;21.05;;;11.80;;
55210;SDS011;41082;52.822;6.666;2023-03-01T07:37:51;18.30;;;12.35;;
55210;SDS011;41082;52.822;6.666;2023-03-01T07:40:17;16.15;;;11.57;;
55210;SDS011;41082;52.822;6.666;2023-03-01T07:42:43;16.40;;;11.68;;
55210;SDS011;41082;52.822;6.666;2023-03-01T07:45:08;17.13;;;12.57;;
55210;SDS011;41082;52.822;6.666;2023-03-01T07:47:34;20.98;;;13.63;;
55210;SDS011;41082;52.822;6.666;2023-03-01T07:50:00;21.80;;;13.05;;
55210;SDS011;41082;52.822;6.666;2023-03-01T07:52:26;17.85;;;12.35;;
55210;SDS011;41082;52.822;6.666;2023-03-01T07:54:52;23.13;;;14.75;;
55210;SDS011;41082;52.822;6.666;2023-03-01T07:57:17;28.77;;;16.65;;
55210;SDS011;41082;52.822;6.666;2023-03-01T07:59:43;25.58;;;15.18;;
55210;SDS011;41082;52.822;6.666;2023-03-01T08:02:09;22.60;;;14.55;;
55210;SDS011;41082;52.822;6.666;2023-03-01T08:04:35;25.10;;;17.50;;
55210;SDS011;41082;52.822;6.666;2023-03-01T08:07:04;25.77;;;16.73;;
55210;SDS011;41082;52.822;6.666;2023-03-01T08:09:30;27.73;;;17.67;;
55210;SDS011;41082;52.822;6.666;2023-03-01T08:11:56;24.90;;;16.90;;
55210;SDS011;41082;52.822;6.666;2023-03-01T08:14:24;26.23;;;17.00;;
55210;SDS011;41082;52.822;6.666;2023-03-01T08:16:50;26.30;;;18.52;;
55210;SDS011;41082;52.822;6.666;2023-03-01T08:19:15;28.98;;;18.08;;
55210;SDS011;41082;52.822;6.666;2023-03-01T08:21:41;29.38;;;17.83;;
55210;SDS011;41082;52.822;6.666;2023-03-01T08:24:07;29.42;;;19.38;;
55210;SDS011;41082;52.822;6.666;2023-03-01T08:26:33;33.47;;;20.55;;
55210;SDS011;41082;52.822;6.666;2023-03-01T08:28:59;31.88;;;19.88;;
55210;SDS011;41082;52.822;6.666;2023-03-01T08:33:57;29.55;;;19.63;;
55210;SDS011;41082;52.822;6.666;2023-03-01T08:36:25;29.60;;;20.13;;
55210;SDS011;41082;52.822;6.666;2023-03-01T08:38:55;28.13;;;17.70;;
55210;SDS011;41082;52.822;6.666;2023-03-01T08:41:21;30.48;;;20.20;;
55210;SDS011;41082;52.822;6.666;2023-03-01T08:43:47;28.35;;;18.00;;
55210;SDS011;41082;52.822;6.666;2023-03-01T08:46:13;26.35;;;18.27;;
55210;SDS011;41082;52.822;6.666;2023-03-01T08:48:39;32.50;;;18.23;;
55210;SDS011;41082;52.822;6.666;2023-03-01T08:51:08;25.27;;;17.42;;
55210;SDS011;41082;52.822;6.666;2023-03-01T08:53:39;29.17;;;18.00;;
55210;SDS011;41082;52.822;6.666;2023-03-01T08:56:05;30.15;;;19.90;;
55210;SDS011;41082;52.822;6.666;2023-03-01T08:58:31;27.83;;;18.88;;
55210;SDS011;41082;52.822;6.666;2023-03-01T09:00:57;26.73;;;18.23;;
55210;SDS011;41082;52.822;6.666;2023-03-01T09:03:23;27.15;;;19.10;;
55210;SDS011;41082;52.822;6.666;2023-03-01T09:05:50;28.58;;;17.20;;
55210;SDS011;41082;52.822;6.666;2023-03-01T09:08:16;26.73;;;18.23;;
55210;SDS011;41082;52.822;6.666;2023-03-01T09:10:42;23.65;;;17.77;;
55210;SDS011;41082;52.822;6.666;2023-03-01T09:13:08;24.67;;;17.13;;
55210;SDS011;41082;52.822;6.666;2023-03-01T09:15:36;18.63;;;13.70;;
55210;SDS011;41082;52.822;6.666;2023-03-01T09:18:02;21.63;;;14.57;;
55210;SDS011;41082;52.822;6.666;2023-03-01T09:20:28;18.98;;;13.75;;
55210;SDS011;41082;52.822;6.666;2023-03-01T09:22:55;24.63;;;15.25;;
55210;SDS011;41082;52.822;6.666;2023-03-01T09:25:21;18.92;;;12.95;;
55210;SDS011;41082;52.822;6.666;2023-03-01T09:27:47;18.95;;;12.90;;
55210;SDS011;41082;52.822;6.666;2023-03-01T09:30:16;16.73;;;11.23;;
55210;SDS011;41082;52.822;6.666;2023-03-01T09:32:41;12.63;;;9.20;;
55210;SDS011;41082;52.822;6.666;2023-03-01T09:35:08;12.88;;;8.95;;
55210;SDS011;41082;52.822;6.666;2023-03-01T09:37:34;12.23;;;8.43;;
55210;SDS011;41082;52.822;6.666;2023-03-01T09:40:00;11.60;;;7.70;;
55210;SDS011;41082;52.822;6.666;2023-03-01T09:42:28;8.10;;;5.90;;
55210;SDS011;41082;52.822;6.666;2023-03-01T09:45:06;12.25;;;7.03;;
55210;SDS011;41082;52.822;6.666;2023-03-01T09:47:39;12.65;;;7.38;;
55210;SDS011;41082;52.822;6.666;2023-03-01T09:52:42;7.97;;;5.20;;
55210;SDS011;41082;52.822;6.666;2023-03-01T09:55:13;8.30;;;4.57;;
55210;SDS011;41082;52.822;6.666;2023-03-01T10:02:46;6.43;;;4.28;;
55210;SDS011;41082;52.822;6.666;2023-03-01T10:08:03;5.45;;;3.05;;
55210;SDS011;41082;52.822;6.666;2023-03-01T10:10:37;7.47;;;3.20;;
55210;SDS011;41082;52.822;6.666;2023-03-01T10:13:10;4.90;;;3.17;;
55210;SDS011;41082;52.822;6.666;2023-03-01T10:15:41;5.07;;;3.05;;
55210;SDS011;41082;52.822;6.666;2023-03-01T10:18:31;5.43;;;3.20;;
55210;SDS011;41082;52.822;6.666;2023-03-01T10:20:58;4.80;;;2.97;;
55210;SDS011;41082;52.822;6.666;2023-03-01T10:23:27;4.95;;;3.15;;
55210;SDS011;41082;52.822;6.666;2023-03-01T10:28:54;4.88;;;2.20;;
55210;SDS011;41082;52.822;6.666;2023-03-01T10:34:02;3.15;;;1.67;;
55210;SDS011;41082;52.822;6.666;2023-03-01T10:36:49;3.47;;;1.98;;
55210;SDS011;41082;52.822;6.666;2023-03-01T10:39:18;4.88;;;2.30;;
55210;SDS011;41082;52.822;6.666;2023-03-01T10:41:55;4.43;;;2.85;;
55210;SDS011;41082;52.822;6.666;2023-03-01T10:47:11;4.60;;;2.30;;
55210;SDS011;41082;52.822;6.666;2023-03-01T10:49:39;5.03;;;2.45;;
55210;SDS011;41082;52.822;6.666;2023-03-01T10:52:40;4.07;;;2.10;;
55210;SDS011;41082;52.822;6.666;2023-03-01T11:05:24;5.75;;;1.98;;
55210;SDS011;41082;52.822;6.666;2023-03-01T11:07:55;4.68;;;2.25;;
55210;SDS011;41082;52.822;6.666;2023-03-01T11:10:28;4.00;;;2.53;;
55210;SDS011;41082;52.822;6.666;2023-03-01T11:13:09;3.13;;;2.03;;
55210;SDS011;41082;52.822;6.666;2023-03-01T11:15:40;5.22;;;1.92;;
55210;SDS011;41082;52.822;6.666;2023-03-01T11:18:20;5.55;;;2.33;;
55210;SDS011;41082;52.822;6.666;2023-03-01T11:20:47;5.45;;;2.15;;
55210;SDS011;41082;52.822;6.666;2023-03-01T11:23:16;4.78;;;2.47;;
55210;SDS011;41082;52.822;6.666;2023-03-01T11:25:46;5.78;;;2.80;;
55210;SDS011;41082;52.822;6.666;2023-03-01T11:28:17;3.60;;;2.60;;
55210;SDS011;41082;52.822;6.666;2023-03-01T11:31:02;5.63;;;2.75;;
55210;SDS011;41082;52.822;6.666;2023-03-01T11:38:39;5.07;;;2.97;;
55210;SDS011;41082;52.822;6.666;2023-03-01T11:41:10;5.15;;;2.80;;
55210;SDS011;41082;52.822;6.666;2023-03-01T11:48:56;7.05;;;3.90;;
55210;SDS011;41082;52.822;6.666;2023-03-01T11:54:33;7.05;;;4.18;;
55210;SDS011;41082;52.822;6.666;2023-03-01T12:03:13;7.70;;;4.68;;
55210;SDS011;41082;52.822;6.666;2023-03-01T12:11:52;7.68;;;3.97;;
55210;SDS011;41082;52.822;6.666;2023-03-01T12:17:56;8.90;;;4.20;;
55210;SDS011;41082;52.822;6.666;2023-03-01T12:26:10;7.75;;;4.20;;
55210;SDS011;41082;52.822;6.666;2023-03-01T12:31:39;8.60;;;5.75;;
55210;SDS011;41082;52.822;6.666;2023-03-01T12:43:15;6.82;;;5.15;;
55210;SDS011;41082;52.822;6.666;2023-03-01T12:48:53;9.10;;;5.15;;
55210;SDS011;41082;52.822;6.666;2023-03-01T12:51:29;6.75;;;4.50;;
55210;SDS011;41082;52.822;6.666;2023-03-01T12:53:58;7.18;;;4.78;;
55210;SDS011;41082;52.822;6.666;2023-03-01T12:56:27;6.10;;;4.60;;
55210;SDS011;41082;52.822;6.666;2023-03-01T13:04:23;8.27;;;5.40;;
55210;SDS011;41082;52.822;6.666;2023-03-01T13:07:09;7.03;;;4.90;;
55210;SDS011;41082;52.822;6.666;2023-03-01T13:15:27;7.05;;;4.70;;
55210;SDS011;41082;52.822;6.666;2023-03-01T13:17:55;8.05;;;4.70;;
55210;SDS011;41082;52.822;6.666;2023-03-01T13:20:24;6.38;;;4.93;;
55210;SDS011;41082;52.822;6.666;2023-03-01T13:33:44;8.10;;;5.35;;
55210;SDS011;41082;52.822;6.666;2023-03-01T13:38:56;8.82;;;5.32;;
55210;SDS011;41082;52.822;6.666;2023-03-01T13:46:45;8.25;;;6.35;;
55210;SDS011;41082;52.822;6.666;2023-03-01T13:49:13;8.43;;;5.65;;
55210;SDS011;41082;52.822;6.666;2023-03-01T13:51:42;9.32;;;5.68;;
55210;SDS011;41082;52.822;6.666;2023-03-01T13:54:12;10.73;;;5.45;;
55210;SDS011;41082;52.822;6.666;2023-03-01T13:56:40;8.77;;;5.90;;
55210;SDS011;41082;52.822;6.666;2023-03-01T13:59:06;8.65;;;6.40;;
55210;SDS011;41082;52.822;6.666;2023-03-01T14:01:42;7.72;;;5.60;;
55210;SDS011;41082;52.822;6.666;2023-03-01T14:04:19;9.18;;;6.88;;
55210;SDS011;41082;52.822;6.666;2023-03-01T14:09:52;10.80;;;7.45;;
55210;SDS011;41082;52.822;6.666;2023-03-01T14:12:36;9.30;;;6.70;;
55210;SDS011;41082;52.822;6.666;2023-03-01T14:17:59;10.38;;;7.22;;
55210;SDS011;41082;52.822;6.666;2023-03-01T14:20:32;10.63;;;7.43;;
55210;SDS011;41082;52.822;6.666;2023-03-01T14:23:09;11.95;;;7.68;;
55210;SDS011;41082;52.822;6.666;2023-03-01T14:25:37;10.68;;;7.22;;
55210;SDS011;41082;52.822;6.666;2023-03-01T14:28:24;10.63;;;7.45;;
55210;SDS011;41082;52.822;6.666;2023-03-01T14:30:53;9.52;;;7.22;;
55210;SDS011;41082;52.822;6.666;2023-03-01T14:33:54;12.10;;;7.60;;
55210;SDS011;41082;52.822;6.666;2023-03-01T14:36:25;8.80;;;6.75;;
55210;SDS011;41082;52.822;6.666;2023-03-01T14:38:51;10.77;;;7.28;;
55210;SDS011;41082;52.822;6.666;2023-03-01T14:41:21;12.73;;;7.43;;
55210;SDS011;41082;52.822;6.666;2023-03-01T14:46:19;9.43;;;6.53;;
55210;SDS011;41082;52.822;6.666;2023-03-01T14:48:51;10.32;;;6.97;;
55210;SDS011;41082;52.822;6.666;2023-03-01T14:51:19;9.50;;;7.10;;
55210;SDS011;41082;52.822;6.666;2023-03-01T14:53:45;11.45;;;7.63;;
55210;SDS011;41082;52.822;6.666;2023-03-01T14:56:15;12.13;;;7.88;;
55210;SDS011;41082;52.822;6.666;2023-03-01T14:58:45;11.60;;;7.43;;
55210;SDS011;41082;52.822;6.666;2023-03-01T15:01:16;9.38;;;7.55;;
55210;SDS011;41082;52.822;6.666;2023-03-01T15:03:46;10.52;;;6.47;;
55210;SDS011;41082;52.822;6.666;2023-03-01T15:06:17;8.68;;;6.45;;
55210;SDS011;41082;52.822;6.666;2023-03-01T15:08:45;8.93;;;6.90;;
55210;SDS011;41082;52.822;6.666;2023-03-01T15:13:39;8.30;;;6.13;;
55210;SDS011;41082;52.822;6.666;2023-03-01T15:18:33;8.95;;;6.72;;
55210;SDS011;41082;52.822;6.666;2023-03-01T15:21:13;8.23;;;6.38;;
55210;SDS011;41082;52.822;6.666;2023-03-01T15:23:48;10.00;;;5.97;;
55210;SDS011;41082;52.822;6.666;2023-03-01T15:28:58;7.55;;;5.88;;
55210;SDS011;41082;52.822;6.666;2023-03-01T15:31:26;9.75;;;6.68;;
55210;SDS011;41082;52.822;6.666;2023-03-01T15:34:08;8.75;;;6.10;;
55210;SDS011;41082;52.822;6.666;2023-03-01T15:36:40;10.45;;;6.43;;
55210;SDS011;41082;52.822;6.666;2023-03-01T15:41:55;11.35;;;7.05;;
55210;SDS011;41082;52.822;6.666;2023-03-01T15:44:25;8.38;;;6.57;;
55210;SDS011;41082;52.822;6.666;2023-03-01T15:46:57;9.00;;;6.45;;
55210;SDS011;41082;52.822;6.666;2023-03-01T15:51:51;10.23;;;6.95;;
55210;SDS011;41082;52.822;6.666;2023-03-01T15:54:20;9.50;;;6.78;;
55210;SDS011;41082;52.822;6.666;2023-03-01T15:56:48;9.05;;;6.68;;
55210;SDS011;41082;52.822;6.666;2023-03-01T15:59:15;11.20;;;7.32;;
55210;SDS011;41082;52.822;6.666;2023-03-01T16:01:41;10.25;;;7.00;;
55210;SDS011;41082;52.822;6.666;2023-03-01T16:04:09;8.95;;;7.10;;
55210;SDS011;41082;52.822;6.666;2023-03-01T16:06:38;9.63;;;6.88;;
55210;SDS011;41082;52.822;6.666;2023-03-01T16:09:04;9.75;;;7.30;;
55210;SDS011;41082;52.822;6.666;2023-03-01T16:11:30;12.65;;;7.70;;
55210;SDS011;41082;52.822;6.666;2023-03-01T16:13:57;9.73;;;7.32;;
55210;SDS011;41082;52.822;6.666;2023-03-01T16:16:23;10.40;;;7.75;;
55210;SDS011;41082;52.822;6.666;2023-03-01T16:18:49;10.90;;;7.95;;
55210;SDS011;41082;52.822;6.666;2023-03-01T16:21:16;11.70;;;8.35;;
55210;SDS011;41082;52.822;6.666;2023-03-01T16:23:48;12.38;;;8.85;;
55210;SDS011;41082;52.822;6.666;2023-03-01T16:26:14;11.48;;;8.27;;
55210;SDS011;41082;52.822;6.666;2023-03-01T16:28:40;12.45;;;8.45;;
55210;SDS011;41082;52.822;6.666;2023-03-01T16:31:06;12.13;;;8.48;;
55210;SDS011;41082;52.822;6.666;2023-03-01T16:33:32;10.43;;;7.97;;
55210;SDS011;41082;52.822;6.666;2023-03-01T16:35:59;13.98;;;8.82;;
55210;SDS011;41082;52.822;6.666;2023-03-01T16:38:34;11.13;;;8.73;;
55210;SDS011;41082;52.822;6.666;2023-03-01T16:41:00;13.00;;;8.60;;
55210;SDS011;41082;52.822;6.666;2023-03-01T16:43:26;11.75;;;8.85;;
55210;SDS011;41082;52.822;6.666;2023-03-01T16:45:51;10.77;;;8.20;;
55210;SDS011;41082;52.822;6.666;2023-03-01T16:48:17;11.77;;;9.07;;
55210;SDS011;41082;52.822;6.666;2023-03-01T16:50:43;12.18;;;8.38;;
55210;SDS011;41082;52.822;6.666;2023-03-01T16:53:08;12.23;;;9.23;;
55210;SDS011;41082;52.822;6.666;2023-03-01T16:55:34;13.50;;;9.43;;
55210;SDS011;41082;52.822;6.666;2023-03-01T16:58:00;12.40;;;9.82;;
55210;SDS011;41082;52.822;6.666;2023-03-01T17:00:27;13.35;;;9.40;;
55210;SDS011;41082;52.822;6.666;2023-03-01T17:02:53;13.25;;;8.65;;